createdAt,value
2018-09-18T00:00:30.080Z,100397.75
2018-09-18T00:02:58.854Z,100399.62
2018-09-18T00:05:27.624Z,100401.95
2018-09-18T00:07:56.536Z,100402.63
2018-09-18T00:10:25.255Z,100402.25
2018-09-18T00:12:54.212Z,100410.22
2018-09-18T00:15:23.104Z,100410.98
2018-09-18T00:17:51.766Z,100404.59
2018-09-18T00:20:20.478Z,100409.58
2018-09-18T00:22:49.288Z,100416.23
2018-09-18T00:25:17.950Z,100421.01
2018-09-18T00:27:46.649Z,100412.92
2018-09-18T00:30:15.300Z,100415.45
2018-09-18T00:32:44.060Z,100415.19
2018-09-18T00:35:12.743Z,100415.18
2018-09-18T00:37:41.342Z,100416.28
2018-09-18T00:40:10.099Z,100413.02
2018-09-18T00:42:38.765Z,100415.80
2018-09-18T00:46:10.940Z,100420.11
2018-09-18T00:48:39.613Z,100424.13
2018-09-18T00:51:08.550Z,100418.11
2018-09-18T00:53:37.227Z,100423.45
2018-09-18T00:56:06.138Z,100423.74
2018-09-18T00:58:34.881Z,100433.86
2018-09-18T01:01:03.880Z,100430.13
2018-09-18T01:03:32.484Z,100439.58
2018-09-18T01:06:01.394Z,100437.72
2018-09-18T01:08:30.261Z,100438.09
2018-09-18T01:10:58.949Z,100440.06
2018-09-18T01:13:27.879Z,100438.48
2018-09-18T01:15:56.626Z,100441.87
2018-09-18T01:18:29.678Z,100441.67
2018-09-18T01:20:58.533Z,100455.47
2018-09-18T01:23:27.307Z,100445.23
2018-09-18T01:25:55.959Z,100452.55
2018-09-18T01:28:24.779Z,100450.86
2018-09-18T01:30:53.552Z,100451.41
2018-09-18T01:33:22.185Z,100456.77
2018-09-18T01:35:51.143Z,100456.85
2018-09-18T01:38:19.830Z,100457.61
2018-09-18T01:40:48.508Z,100459.09
2018-09-18T01:43:17.394Z,100458.25
2018-09-18T01:45:46.280Z,100457.78
2018-09-18T01:48:15.049Z,100453.92
2018-09-18T01:50:44.168Z,100455.62
2018-09-18T01:53:12.748Z,100464.73
2018-09-18T01:55:41.606Z,100465.49
2018-09-18T01:58:10.259Z,100466.03
2018-09-18T02:00:38.987Z,100473.69
2018-09-18T02:03:07.775Z,100463.47
2018-09-18T02:05:36.424Z,100459.34
2018-09-18T02:08:05.071Z,100467.77
2018-09-18T02:10:33.902Z,100461.84
2018-09-18T02:13:02.645Z,100457.71
2018-09-18T02:15:31.479Z,100464.73
2018-09-18T02:18:00.526Z,100454.52
2018-09-18T02:20:29.255Z,100456.83
2018-09-18T02:22:57.899Z,100469.27
2018-09-18T02:25:26.745Z,100467.84
2018-09-18T02:27:55.508Z,100470.16
2018-09-18T02:30:24.403Z,100469.97
2018-09-18T02:32:53.315Z,100472.14
2018-09-18T02:35:21.999Z,100476.53
2018-09-18T02:37:51.049Z,100481.00
2018-09-18T02:40:19.831Z,100482.97
2018-09-18T02:42:48.851Z,100481.27
2018-09-18T02:45:17.555Z,100486.59
2018-09-18T02:47:46.543Z,100481.08
2018-09-18T02:50:15.449Z,100474.67
2018-09-18T02:52:44.505Z,100473.52
2018-09-18T02:55:13.190Z,100479.16
2018-09-18T02:57:41.887Z,100481.70
2018-09-18T03:00:11.128Z,100475.14
2018-09-18T03:02:40.082Z,100482.54
2018-09-18T03:05:08.860Z,100482.47
2018-09-18T03:07:37.655Z,100478.92
2018-09-18T03:10:06.947Z,100485.75
2018-09-18T03:12:35.803Z,100481.46
2018-09-18T03:16:07.467Z,100480.50
2018-09-18T03:18:36.566Z,100478.69
2018-09-18T03:21:05.687Z,100482.23
2018-09-18T03:23:34.729Z,100483.27
2018-09-18T03:26:03.447Z,100483.42
2018-09-18T03:28:32.310Z,100483.03
2018-09-18T03:31:01.262Z,100476.87
2018-09-18T03:33:30.319Z,100477.64
2018-09-18T03:35:59.265Z,100472.20
2018-09-18T03:38:28.055Z,100473.37
2018-09-18T03:40:56.679Z,100472.91
2018-09-18T03:43:25.712Z,100449.61
2018-09-18T03:45:54.511Z,100478.34
2018-09-18T03:48:23.621Z,100474.98
2018-09-18T03:50:52.186Z,100474.67
2018-09-18T03:53:20.946Z,100473.37
2018-09-18T03:55:49.813Z,100470.28
2018-09-18T03:58:18.539Z,100468.13
2018-09-18T04:00:47.206Z,100470.75
2018-09-18T04:03:16.201Z,100475.06
2018-09-18T04:05:45.076Z,100479.08
2018-09-18T04:08:14.243Z,100479.45
2018-09-18T04:10:43.264Z,100486.86
2018-09-18T04:13:12.114Z,100483.31
2018-09-18T04:15:41.631Z,100493.41
2018-09-18T04:18:10.942Z,100490.28
2018-09-18T04:20:39.638Z,100488.79
2018-09-18T04:23:08.322Z,100485.24
2018-09-18T04:25:37.081Z,100481.39
2018-09-18T04:28:05.841Z,100487.94
2018-09-18T04:30:34.534Z,100490.88
2018-09-18T04:33:03.296Z,100487.25
2018-09-18T04:35:32.120Z,100485.86
2018-09-18T04:38:00.954Z,100490.76
2018-09-18T04:40:29.792Z,100497.70
2018-09-18T04:42:58.588Z,100498.78
2018-09-18T04:45:27.314Z,100498.62
2018-09-18T04:47:56.065Z,100498.66
2018-09-18T04:50:24.820Z,100499.89
2018-09-18T04:52:53.547Z,100493.48
2018-09-18T04:55:22.380Z,100489.27
2018-09-18T04:57:51.222Z,100485.72
2018-09-18T05:00:19.913Z,100480.78
2018-09-18T05:02:48.617Z,100485.59
2018-09-18T05:05:17.551Z,100483.92
2018-09-18T05:07:46.564Z,100480.47
2018-09-18T05:10:15.579Z,100483.12
2018-09-18T05:12:44.363Z,100486.15
2018-09-18T05:15:13.265Z,100482.14
2018-09-18T05:17:42.007Z,100481.66
2018-09-18T05:20:10.815Z,100481.61
2018-09-18T05:22:39.527Z,100477.98
2018-09-18T05:25:08.651Z,100474.48
2018-09-18T05:27:37.434Z,100472.34
2018-09-18T05:30:06.585Z,100480.47
2018-09-18T05:32:35.477Z,100487.75
2018-09-18T05:35:04.290Z,100483.95
2018-09-18T05:37:33.055Z,100480.20
2018-09-18T05:40:01.805Z,100480.51
2018-09-18T05:42:31.027Z,100478.27
2018-09-18T05:44:59.791Z,100482.77
2018-09-18T05:47:28.622Z,100480.52
2018-09-18T05:49:57.368Z,100488.11
2018-09-18T05:52:26.201Z,100494.42
2018-09-18T05:54:54.810Z,100493.37
2018-09-18T05:57:23.560Z,100487.55
2018-09-18T05:59:52.327Z,100490.64
2018-09-18T06:02:21.107Z,100490.63
2018-09-18T06:04:49.868Z,100488.66
2018-09-18T06:07:18.501Z,100493.32
2018-09-18T06:09:47.569Z,100487.32
2018-09-18T06:12:16.962Z,100491.51
2018-09-18T06:14:45.596Z,100485.10
2018-09-18T06:17:14.560Z,100482.20
2018-09-18T06:19:43.415Z,100479.21
2018-09-18T06:22:12.060Z,100484.91
2018-09-18T06:24:40.695Z,100480.87
2018-09-18T06:27:10.004Z,100483.29
2018-09-18T06:29:38.822Z,100487.67
2018-09-18T06:32:07.497Z,100477.09
2018-09-18T06:34:36.151Z,100478.75
2018-09-18T06:37:04.969Z,100481.19
2018-09-18T06:39:33.681Z,100475.80
2018-09-18T06:42:02.411Z,100476.11
2018-09-18T06:44:31.058Z,100463.16
2018-09-18T06:46:59.811Z,100463.38
2018-09-18T06:49:28.549Z,100458.16
2018-09-18T06:51:57.258Z,100462.68
2018-09-18T06:54:26.325Z,100460.87
2018-09-18T06:56:55.220Z,100453.11
2018-09-18T06:59:24.065Z,100461.81
2018-09-18T07:01:53.208Z,100457.20
2018-09-18T07:04:22.091Z,100458.42
2018-09-18T07:06:50.708Z,100456.55
2018-09-18T07:09:19.394Z,100462.28
2018-09-18T07:11:48.432Z,100458.71
2018-09-18T07:14:17.573Z,100461.03
2018-09-18T07:16:46.535Z,100455.58
2018-09-18T07:19:15.886Z,100458.06
2018-09-18T07:21:44.616Z,100456.92
2018-09-18T07:24:13.602Z,100453.41
2018-09-18T07:26:42.320Z,100453.05
2018-09-18T07:29:11.618Z,100456.73
2018-09-18T07:31:40.419Z,100457.37
2018-09-18T07:34:09.406Z,100452.09
2018-09-18T07:36:38.141Z,100458.17
2018-09-18T07:39:09.860Z,100458.95
2018-09-18T07:41:38.766Z,100453.92
2018-09-18T07:44:07.393Z,100456.27
2018-09-18T07:46:36.628Z,100449.25
2018-09-18T07:49:05.986Z,100447.22
2018-09-18T07:51:35.415Z,100451.43
2018-09-18T07:54:04.119Z,100451.34
2018-09-18T07:56:33.186Z,100447.98
2018-09-18T07:59:02.807Z,100455.77
2018-09-18T08:01:32.682Z,100454.69
2018-09-18T08:04:01.406Z,100453.35
2018-09-18T08:06:30.288Z,100446.11
2018-09-18T08:08:59.154Z,100448.42
2018-09-18T08:11:28.094Z,100452.18
2018-09-18T08:13:56.742Z,100445.74
2018-09-18T08:16:25.418Z,100446.30
2018-09-18T08:18:54.319Z,100447.74
2018-09-18T08:24:06.321Z,100437.13
2018-09-18T08:26:35.176Z,100434.02
2018-09-18T08:29:04.111Z,100421.75
2018-09-18T08:31:33.169Z,100429.39
2018-09-18T08:34:02.103Z,100416.66
2018-09-18T08:36:31.380Z,100421.52
2018-09-18T08:39:00.266Z,100407.98
2018-09-18T08:41:29.177Z,100416.30
2018-09-18T08:43:59.026Z,100414.08
2018-09-18T08:46:27.769Z,100409.70
2018-09-18T08:48:57.771Z,100412.02
2018-09-18T08:51:27.085Z,100407.47
2018-09-18T08:53:56.089Z,100401.00
2018-09-18T08:56:24.954Z,100398.70
2018-09-18T08:58:53.740Z,100376.70
2018-09-18T09:01:22.602Z,100394.30
2018-09-18T09:03:51.584Z,100401.11
2018-09-18T09:06:20.673Z,100407.13
2018-09-18T09:08:49.571Z,100412.63
2018-09-18T09:11:18.255Z,100407.52
2018-09-18T09:13:47.088Z,100406.44
2018-09-18T09:16:16.323Z,100403.17
2018-09-18T09:18:45.010Z,100402.77
2018-09-18T09:21:14.070Z,100398.12
2018-09-18T09:23:42.794Z,100399.92
2018-09-18T09:26:11.382Z,100396.34
2018-09-18T09:28:40.095Z,100392.38
2018-09-18T09:31:08.864Z,100388.50
2018-09-18T09:33:37.685Z,100392.70
2018-09-18T09:36:06.962Z,100389.37
2018-09-18T09:38:35.691Z,100400.23
2018-09-18T09:41:04.480Z,100390.05
2018-09-18T09:43:33.108Z,100396.59
2018-09-18T09:46:01.944Z,100401.52
2018-09-18T09:48:34.348Z,100391.53
2018-09-18T09:51:04.563Z,100397.80
2018-09-18T09:53:33.638Z,100384.81
2018-09-18T09:56:02.458Z,100394.34
2018-09-18T09:58:31.253Z,100387.64
2018-09-18T10:01:05.119Z,100396.09
2018-09-18T10:03:33.897Z,100386.02
2018-09-18T10:06:02.814Z,100387.57
2018-09-18T10:08:31.641Z,100388.38
2018-09-18T10:11:00.384Z,100379.53
2018-09-18T10:13:29.155Z,100384.54
2018-09-18T10:15:58.091Z,100375.19
2018-09-18T10:18:26.928Z,100373.17
2018-09-18T10:20:56.005Z,100365.66
2018-09-18T10:23:24.682Z,100363.83
2018-09-18T10:25:53.565Z,100372.68
2018-09-18T10:28:22.388Z,100369.33
2018-09-18T10:30:51.114Z,100375.84
2018-09-18T10:33:19.911Z,100373.00
2018-09-18T10:35:48.766Z,100375.50
2018-09-18T10:38:17.465Z,100375.30
2018-09-18T10:40:46.694Z,100376.68
2018-09-18T10:43:15.582Z,100376.53
2018-09-18T10:45:44.390Z,100365.98
2018-09-18T10:48:13.001Z,100376.02
2018-09-18T10:50:41.973Z,100366.13
2018-09-18T10:53:10.869Z,100367.88
2018-09-18T10:55:39.793Z,100343.85
2018-09-18T10:58:08.602Z,100365.89
2018-09-18T11:00:37.544Z,100358.25
2018-09-18T11:03:06.238Z,100352.79
2018-09-18T11:05:34.966Z,100347.78
2018-09-18T11:08:03.784Z,100343.42
2018-09-18T11:10:32.614Z,100335.42
2018-09-18T11:13:01.594Z,100344.27
2018-09-18T11:15:30.626Z,100350.45
2018-09-18T11:17:59.314Z,100351.78
2018-09-18T11:20:28.062Z,100350.78
2018-09-18T11:22:57.200Z,100349.45
2018-09-18T11:25:26.092Z,100356.98
2018-09-18T11:27:54.942Z,100356.63
2018-09-18T11:30:23.636Z,100360.30
2018-09-18T11:32:52.509Z,100348.64
2018-09-18T11:35:21.086Z,100335.60
2018-09-18T11:37:50.451Z,100328.11
2018-09-18T11:40:19.299Z,100327.01
2018-09-18T11:42:48.277Z,100320.91
2018-09-18T11:45:17.132Z,100325.16
2018-09-18T11:47:45.854Z,100329.77
2018-09-18T11:50:14.704Z,100340.59
2018-09-18T11:52:43.408Z,100344.41
2018-09-18T11:55:12.120Z,100338.23
2018-09-18T11:57:41.120Z,100340.59
2018-09-18T12:00:09.967Z,100339.25
2018-09-18T12:02:38.833Z,100345.94
2018-09-18T12:05:07.564Z,100347.28
2018-09-18T12:07:36.612Z,100343.27
2018-09-18T12:10:05.423Z,100340.41
2018-09-18T12:12:34.179Z,100336.06
2018-09-18T12:15:02.881Z,100332.86
2018-09-18T12:17:31.565Z,100343.59
2018-09-18T12:20:00.464Z,100332.75
2018-09-18T12:22:29.254Z,100322.77
2018-09-18T12:24:58.133Z,100308.91
2018-09-18T12:27:26.677Z,100300.73
2018-09-18T12:29:56.292Z,100296.02
2018-09-18T12:32:25.193Z,100305.06
2018-09-18T12:34:55.185Z,100307.91
2018-09-18T12:37:24.033Z,100299.53
2018-09-18T12:39:52.946Z,100298.91
2018-09-18T12:42:21.701Z,100289.55
2018-09-18T12:44:50.495Z,100295.05
2018-09-18T12:47:19.225Z,100288.39
2018-09-18T12:49:48.087Z,100284.06
2018-09-18T12:52:16.665Z,100281.56
2018-09-18T12:54:45.486Z,100280.45
2018-09-18T12:57:14.495Z,100275.41
2018-09-18T12:59:43.223Z,100281.02
2018-09-18T13:02:12.106Z,100278.27
2018-09-18T13:04:40.921Z,100273.12
2018-09-18T13:07:10.379Z,100264.97
2018-09-18T13:09:39.264Z,100265.39
2018-09-18T13:12:08.077Z,100271.41
2018-09-18T13:14:36.848Z,100268.28
2018-09-18T13:17:05.722Z,100268.13
2018-09-18T13:19:34.642Z,100262.13
2018-09-18T13:22:03.370Z,100267.98
2018-09-18T13:24:32.155Z,100259.28
2018-09-18T13:27:01.054Z,100259.61
2018-09-18T13:29:29.919Z,100247.23
2018-09-18T13:31:58.713Z,100239.38
2018-09-18T13:34:27.366Z,100237.45
2018-09-18T13:36:56.147Z,100240.76
2018-09-18T13:39:24.850Z,100243.44
2018-09-18T13:41:53.712Z,100239.62
2018-09-18T13:44:22.943Z,100234.46
2018-09-18T13:46:51.785Z,100241.80
2018-09-18T13:49:20.570Z,100218.41
2018-09-18T13:51:49.502Z,100236.96
2018-09-18T13:54:18.727Z,100240.47
2018-09-18T13:56:47.872Z,100248.14
2018-09-18T13:59:16.816Z,100249.33
2018-09-18T14:01:45.721Z,100256.64
2018-09-18T14:04:14.317Z,100254.21
2018-09-18T14:06:43.209Z,100252.78
2018-09-18T14:09:12.859Z,100260.11
2018-09-18T14:11:41.655Z,100250.91
2018-09-18T14:14:10.462Z,100257.09
2018-09-18T14:16:39.327Z,100257.25
2018-09-18T14:19:08.038Z,100251.91
2018-09-18T14:21:36.755Z,100246.19
2018-09-18T14:24:05.889Z,100244.57
2018-09-18T14:26:35.069Z,100237.67
2018-09-18T14:29:03.858Z,100227.59
2018-09-18T14:31:33.034Z,100238.59
2018-09-18T14:34:01.951Z,100235.52
2018-09-18T14:36:31.059Z,100247.61
2018-09-18T14:38:59.806Z,100234.67
2018-09-18T14:41:28.679Z,100240.22
2018-09-18T14:43:57.644Z,100230.55
2018-09-18T14:46:26.238Z,100229.22
2018-09-18T14:49:58.405Z,100232.95
2018-09-18T14:52:27.194Z,100240.50
2018-09-18T14:54:55.976Z,100241.51
2018-09-18T14:57:25.255Z,100243.42
2018-09-18T14:59:54.164Z,100245.76
2018-09-18T15:02:22.959Z,100242.49
2018-09-18T15:04:51.881Z,100236.66
2018-09-18T15:07:20.629Z,100245.91
2018-09-18T15:09:49.406Z,100239.67
2018-09-18T15:12:18.230Z,100245.17
2018-09-18T15:14:47.386Z,100235.62
2018-09-18T15:17:16.012Z,100232.47
2018-09-18T15:19:44.989Z,100224.97
2018-09-18T15:22:13.889Z,100219.83
2018-09-18T15:24:42.785Z,100230.30
2018-09-18T15:27:11.578Z,100228.47
2018-09-18T15:29:40.432Z,100236.42
2018-09-18T15:32:09.462Z,100236.45
2018-09-18T15:34:38.099Z,100242.45
2018-09-18T15:37:06.790Z,100238.69
2018-09-18T15:39:35.661Z,100233.30
2018-09-18T15:42:04.499Z,100236.42
2018-09-18T15:44:33.203Z,100239.34
2018-09-18T15:47:02.214Z,100237.14
2018-09-18T15:49:31.197Z,100233.33
2018-09-18T15:51:59.942Z,100208.06
2018-09-18T15:54:28.750Z,100239.95
2018-09-18T15:56:57.621Z,100243.59
2018-09-18T15:59:26.355Z,100232.39
2018-09-18T16:01:55.164Z,100233.55
2018-09-18T16:04:23.852Z,100228.83
2018-09-18T16:06:52.816Z,100226.48
2018-09-18T16:09:21.865Z,100232.29
2018-09-18T16:11:50.738Z,100227.63
2018-09-18T16:14:19.616Z,100231.48
2018-09-18T16:16:48.546Z,100240.23
2018-09-18T16:19:17.682Z,100243.53
2018-09-18T16:21:46.567Z,100237.23
2018-09-18T16:24:15.393Z,100238.42
2018-09-18T16:26:44.166Z,100238.56
2018-09-18T16:29:13.084Z,100230.55
2018-09-18T16:31:41.853Z,100237.86
2018-09-18T16:34:10.951Z,100243.00
2018-09-18T16:36:39.670Z,100251.62
2018-09-18T16:39:08.624Z,100255.39
2018-09-18T16:41:37.447Z,100258.72
2018-09-18T16:44:06.158Z,100255.98
2018-09-18T16:46:34.966Z,100263.44
2018-09-18T16:49:04.754Z,100258.05
2018-09-18T16:51:34.029Z,100255.20
2018-09-18T16:54:02.994Z,100266.34
2018-09-18T16:56:31.643Z,100259.12
2018-09-18T16:59:00.483Z,100260.77
2018-09-18T17:01:29.437Z,100256.84
2018-09-18T17:03:58.621Z,100261.59
2018-09-18T17:06:27.564Z,100267.75
2018-09-18T17:08:56.254Z,100268.02
2018-09-18T17:11:25.150Z,100260.19
2018-09-18T17:13:53.812Z,100241.02
2018-09-18T17:16:22.489Z,100266.09
2018-09-18T17:18:51.338Z,100259.39
2018-09-18T17:21:20.310Z,100260.16
2018-09-18T17:23:49.156Z,100258.97
2018-09-18T17:26:18.193Z,100263.61
2018-09-18T17:28:47.101Z,100267.95
2018-09-18T17:31:15.699Z,100259.41
2018-09-18T17:33:44.558Z,100267.33
2018-09-18T17:36:13.801Z,100260.74
2018-09-18T17:38:42.576Z,100256.22
2018-09-18T17:41:11.876Z,100253.34
2018-09-18T17:43:40.824Z,100250.64
2018-09-18T17:46:09.846Z,100245.11
2018-09-18T17:48:38.507Z,100248.55
2018-09-18T17:51:07.532Z,100250.64
2018-09-18T17:53:36.404Z,100245.77
2018-09-18T17:56:05.163Z,100245.20
2018-09-18T17:58:33.922Z,100245.84
2018-09-18T18:01:02.890Z,100246.47
2018-09-18T18:03:31.631Z,100242.27
2018-09-18T18:06:00.584Z,100233.77
2018-09-18T18:08:29.582Z,100229.20
2018-09-18T18:10:58.483Z,100225.30
2018-09-18T18:13:27.203Z,100225.22
2018-09-18T18:15:55.999Z,100222.86
2018-09-18T18:18:24.914Z,100230.60
2018-09-18T18:20:53.650Z,100232.71
2018-09-18T18:23:22.718Z,100232.14
2018-09-18T18:25:51.403Z,100241.72
2018-09-18T18:28:20.877Z,100245.48
2018-09-18T18:30:50.053Z,100243.80
2018-09-18T18:33:19.428Z,100244.23
2018-09-18T18:35:48.313Z,100244.13
2018-09-18T18:38:17.243Z,100232.27
2018-09-18T18:40:45.957Z,100237.22
2018-09-18T18:43:15.031Z,100242.81
2018-09-18T18:45:43.950Z,100237.64
2018-09-18T18:48:13.268Z,100249.45
2018-09-18T18:50:41.937Z,100251.27
2018-09-18T18:53:10.763Z,100249.09
2018-09-18T18:55:39.700Z,100251.49
2018-09-18T18:58:08.541Z,100252.27
2018-09-18T19:00:37.563Z,100251.69
2018-09-18T19:03:06.540Z,100254.76
2018-09-18T19:05:35.386Z,100254.89
2018-09-18T19:08:04.939Z,100252.49
2018-09-18T19:10:33.867Z,100248.80
2018-09-18T19:13:02.687Z,100246.05
2018-09-18T19:15:31.485Z,100244.17
2018-09-18T19:18:00.193Z,100241.30
2018-09-18T19:20:28.840Z,100237.93
2018-09-18T19:22:57.877Z,100243.87
2018-09-18T19:25:26.918Z,100106.93
2018-09-18T19:27:55.894Z,100241.73
2018-09-18T19:30:24.664Z,100244.33
2018-09-18T19:32:53.530Z,100241.24
2018-09-18T19:35:22.703Z,100236.55
2018-09-18T19:37:51.890Z,100234.52
2018-09-18T19:40:21.071Z,100250.42
2018-09-18T19:42:49.916Z,100243.92
2018-09-18T19:45:18.683Z,100247.21
2018-09-18T19:47:48.050Z,100240.35
2018-09-18T19:50:18.737Z,100240.84
2018-09-18T19:52:48.993Z,100237.22
2018-09-18T19:55:18.366Z,100244.20
2018-09-18T19:57:47.320Z,100247.21
2018-09-18T20:00:16.385Z,100244.45
2018-09-18T20:02:45.060Z,100248.72
2018-09-18T20:05:14.403Z,100239.20
2018-09-18T20:07:43.471Z,100242.62
2018-09-18T20:10:12.308Z,100248.05
2018-09-18T20:12:41.396Z,100250.83
2018-09-18T20:15:10.561Z,100242.93
2018-09-18T20:17:39.524Z,100245.59
2018-09-18T20:20:08.955Z,100230.41
2018-09-18T20:22:37.703Z,100230.29
2018-09-18T20:25:06.585Z,100221.50
2018-09-18T20:27:37.256Z,100213.06
2018-09-18T20:30:06.447Z,100220.05
2018-09-18T20:32:35.629Z,100217.76
2018-09-18T20:35:04.651Z,100209.80
2018-09-18T20:37:33.526Z,100206.31
2018-09-18T20:40:02.383Z,100205.83
2018-09-18T20:42:31.221Z,100206.80
2018-09-18T20:45:00.792Z,100202.34
2018-09-18T20:47:29.785Z,100199.56
2018-09-18T20:49:59.119Z,100197.76
2018-09-18T20:52:28.022Z,100196.20
2018-09-18T20:54:57.210Z,100197.30
2018-09-18T20:57:26.179Z,100185.78
2018-09-18T20:59:55.712Z,100186.03
2018-09-18T21:02:24.995Z,100185.96
2018-09-18T21:04:53.947Z,100187.17
2018-09-18T21:07:22.918Z,100180.48
2018-09-18T21:09:51.752Z,100152.90
2018-09-18T21:12:21.226Z,100174.34
2018-09-18T21:14:50.063Z,100179.77
2018-09-18T21:17:18.794Z,100181.38
2018-09-18T21:19:47.544Z,100179.81
2018-09-18T21:22:16.386Z,100179.69
2018-09-18T21:24:46.289Z,100176.91
2018-09-18T21:27:15.589Z,100181.39
2018-09-18T21:29:44.503Z,100175.61
2018-09-18T21:32:13.533Z,100175.61
2018-09-18T21:34:42.212Z,100172.35
2018-09-18T21:37:11.710Z,100171.28
2018-09-18T21:39:41.929Z,100175.05
2018-09-18T21:42:11.497Z,100085.13
2018-09-18T21:44:41.443Z,100175.25
2018-09-18T21:47:10.244Z,100176.09
2018-09-18T21:49:39.351Z,100175.97
2018-09-18T21:52:08.462Z,100182.51
2018-09-18T21:54:38.441Z,100187.58
2018-09-18T21:57:07.475Z,100190.83
2018-09-18T21:59:36.823Z,100189.50
2018-09-18T22:02:05.590Z,100196.84
2018-09-18T22:04:34.540Z,100198.88
2018-09-18T22:07:04.040Z,100188.65
2018-09-18T22:09:33.825Z,100190.34
2018-09-18T22:12:03.725Z,100193.95
2018-09-18T22:14:32.806Z,100193.75
2018-09-18T22:17:02.549Z,100186.77
2018-09-18T22:19:32.210Z,100162.80
2018-09-18T22:22:01.777Z,100188.46
2018-09-18T22:24:31.108Z,100186.30
2018-09-18T22:27:00.357Z,100181.96
2018-09-18T22:29:29.569Z,100185.33
2018-09-18T22:31:58.700Z,100177.10
2018-09-18T22:34:27.874Z,100180.59
2018-09-18T22:36:57.278Z,100170.97
2018-09-18T22:39:26.632Z,100149.10
2018-09-18T22:41:55.984Z,100138.98
2018-09-18T22:44:25.100Z,100127.20
2018-09-18T22:46:53.818Z,100118.19
2018-09-18T22:49:22.657Z,100114.85
2018-09-18T22:51:51.849Z,100122.80
2018-09-18T22:54:20.563Z,100109.20
2018-09-18T22:56:49.645Z,100115.23
2018-09-18T22:59:18.501Z,100127.06
2018-09-18T23:01:47.125Z,100123.72
2018-09-18T23:04:15.935Z,100119.46
2018-09-18T23:06:44.733Z,100115.37
2018-09-18T23:09:13.687Z,100117.53
2018-09-18T23:11:42.415Z,100118.86
2018-09-18T23:14:11.120Z,100129.92
2018-09-18T23:16:40.379Z,100128.97
2018-09-18T23:19:09.167Z,100132.36
2018-09-18T23:21:37.988Z,100139.69
2018-09-18T23:24:07.662Z,100140.66
2018-09-18T23:26:36.537Z,100144.98
2018-09-18T23:29:05.318Z,100149.42
2018-09-18T23:31:34.128Z,100157.69
2018-09-18T23:34:02.917Z,100165.75
2018-09-18T23:36:31.601Z,100165.51
2018-09-18T23:39:00.428Z,100171.52
2018-09-18T23:41:29.384Z,100168.88
2018-09-18T23:43:58.330Z,100175.70
2018-09-18T23:46:27.298Z,100172.72
2018-09-18T23:48:56.192Z,100168.64
2018-09-18T23:51:25.118Z,100151.31
2018-09-18T23:53:54.024Z,100136.40
2018-09-18T23:56:22.720Z,100132.42
2018-09-18T23:58:51.383Z,100122.20
